Time;durP1;ratioP1;P1;durP2;ratioP2;P2;SDS_P1;SDS_P2;PMS_P1;PMS_P2;Temp;Humidity;BMP_temperature;BMP_pressure;BME280_temperature;BME280_humidity;BME280_pressure;Samples;Min_cycle;Max_cycle;Signal;HPM_P1;HPM_P2
2023/03/21 00:01:18;;;;;;;2.25;1.33;;;;;;;;;;4567727;28;20392;-57
2023/03/21 00:03:29;;;;;;;1.60;1.27;;;;;;;;;;4567936;28;24950;-58
2023/03/21 00:05:40;;;;;;;1.70;1.30;;;;;;;;;;4551295;28;20036;-57
2023/03/21 00:07:51;;;;;;;2.55;1.40;;;;;;;;;;4568159;28;20028;-57
2023/03/21 00:10:01;;;;;;;2.28;1.40;;;;;;;;;;4569399;28;20032;-57
2023/03/21 00:12:13;;;;;;;1.77;1.40;;;;;;;;;;4567318;28;20032;-57
2023/03/21 00:14:24;;;;;;;1.90;1.30;;;;;;;;;;4553360;28;20032;-57
2023/03/21 00:16:35;;;;;;;2.50;1.33;;;;;;;;;;4569013;28;20043;-57
2023/03/21 00:18:51;;;;;;;2.10;1.50;;;;;;;;;;4568508;28;20043;-57
2023/03/21 00:21:03;;;;;;;1.60;1.40;;;;;;;;;;4549280;28;20121;-57
2023/03/21 00:23:14;;;;;;;3.08;1.73;;;;;;;;;;4551206;28;20037;-57
2023/03/21 00:25:25;;;;;;;2.38;1.60;;;;;;;;;;4569024;28;21111;-57
2023/03/21 00:27:36;;;;;;;2.50;1.55;;;;;;;;;;4544179;28;31191;-57
2023/03/21 00:29:50;;;;;;;1.75;1.25;;;;;;;;;;4568573;28;20043;-57
2023/03/21 00:32:01;;;;;;;2.25;1.48;;;;;;;;;;4534962;28;20041;-57
2023/03/21 00:34:12;;;;;;;1.92;1.50;;;;;;;;;;4565972;28;20040;-57
2023/03/21 00:36:24;;;;;;;2.58;1.70;;;;;;;;;;4528290;28;20491;-57
2023/03/21 00:38:36;;;;;;;2.38;1.50;;;;;;;;;;4567492;28;20044;-57
2023/03/21 00:40:46;;;;;;;1.92;1.33;;;;;;;;;;4567765;28;20082;-57
2023/03/21 00:42:57;;;;;;;2.17;1.40;;;;;;;;;;4567466;28;20063;-57
2023/03/21 00:45:09;;;;;;;1.80;1.45;;;;;;;;;;4567317;28;20032;-57
2023/03/21 00:47:19;;;;;;;2.28;1.52;;;;;;;;;;4553318;28;20036;-57
2023/03/21 00:49:32;;;;;;;2.50;1.50;;;;;;;;;;4553402;28;20067;-57
2023/03/21 00:51:49;;;;;;;1.70;1.50;;;;;;;;;;4537657;28;20573;-57
2023/03/21 00:54:00;;;;;;;1.77;1.30;;;;;;;;;;4550188;28;21324;-57
2023/03/21 00:56:11;;;;;;;1.80;1.35;;;;;;;;;;4532634;28;20025;-57
2023/03/21 00:58:22;;;;;;;1.70;1.38;;;;;;;;;;4566893;28;29054;-57
2023/03/21 01:00:35;;;;;;;1.48;1.20;;;;;;;;;;4568896;28;20040;-57
2023/03/21 01:02:56;;;;;;;2.20;1.40;;;;;;;;;;4551249;28;20029;-58
2023/03/21 01:05:09;;;;;;;2.25;1.40;;;;;;;;;;4567204;28;20599;-57
2023/03/21 01:07:19;;;;;;;2.10;1.70;;;;;;;;;;4549819;28;20033;-57
2023/03/21 01:09:30;;;;;;;1.80;1.40;;;;;;;;;;4569100;28;20040;-56
2023/03/21 01:11:42;;;;;;;1.77;1.38;;;;;;;;;;4569243;28;20764;-57
2023/03/21 01:13:55;;;;;;;1.58;1.45;;;;;;;;;;4552677;28;20044;-57
2023/03/21 01:16:08;;;;;;;1.50;1.30;;;;;;;;;;4553400;28;20057;-57
2023/03/21 01:18:20;;;;;;;1.80;1.40;;;;;;;;;;4548551;28;20040;-57
2023/03/21 01:20:31;;;;;;;3.10;1.65;;;;;;;;;;4566932;28;20087;-57
2023/03/21 01:22:41;;;;;;;1.63;1.40;;;;;;;;;;4532761;28;20125;-57
2023/03/21 01:24:51;;;;;;;1.90;1.50;;;;;;;;;;4568362;28;20162;-57
2023/03/21 01:27:02;;;;;;;2.35;1.48;;;;;;;;;;4549419;28;20123;-57
2023/03/21 01:29:12;;;;;;;2.30;1.50;;;;;;;;;;4569822;28;20070;-58
2023/03/21 01:31:23;;;;;;;1.40;1.30;;;;;;;;;;4548499;28;20602;-57
2023/03/21 01:33:34;;;;;;;1.95;1.52;;;;;;;;;;4548588;28;20033;-58
2023/03/21 01:35:45;;;;;;;2.00;1.58;;;;;;;;;;4535766;28;20257;-57
2023/03/21 01:37:56;;;;;;;1.90;1.45;;;;;;;;;;4551150;28;20028;-57
2023/03/21 01:40:11;;;;;;;1.85;1.45;;;;;;;;;;4566776;28;20040;-57
2023/03/21 01:42:23;;;;;;;2.03;1.63;;;;;;;;;;4538037;28;20032;-58
2023/03/21 01:44:56;;;;;;;2.05;1.48;;;;;;;;;;4551415;28;20409;-58
2023/03/21 01:47:08;;;;;;;2.97;1.88;;;;;;;;;;4531893;28;20071;-57
2023/03/21 01:49:34;;;;;;;2.17;1.65;;;;;;;;;;4568764;28;20032;-57
2023/03/21 01:52:05;;;;;;;2.75;1.80;;;;;;;;;;4551863;28;20028;-57
2023/03/21 01:54:23;;;;;;;2.92;1.63;;;;;;;;;;4551710;28;20449;-57
2023/03/21 01:56:36;;;;;;;2.08;1.50;;;;;;;;;;4548979;28;20535;-57
2023/03/21 01:58:54;;;;;;;2.03;1.48;;;;;;;;;;4534117;28;20672;-58
2023/03/21 02:01:33;;;;;;;1.90;1.50;;;;;;;;;;4544978;28;20571;-57
2023/03/21 02:03:49;;;;;;;1.98;1.67;;;;;;;;;;4525695;28;20075;-57
2023/03/21 02:06:30;;;;;;;2.42;1.80;;;;;;;;;;4544174;28;20487;-57
2023/03/21 02:08:47;;;;;;;2.08;1.60;;;;;;;;;;4550754;28;20072;-57
2023/03/21 02:10:59;;;;;;;1.92;1.55;;;;;;;;;;4547630;28;20027;-57
2023/03/21 02:13:19;;;;;;;2.40;1.60;;;;;;;;;;4533428;28;20045;-57
2023/03/21 02:15:29;;;;;;;2.90;1.73;;;;;;;;;;4531907;28;20057;-58
2023/03/21 02:17:55;;;;;;;1.85;1.55;;;;;;;;;;4551343;28;20033;-57
2023/03/21 02:20:26;;;;;;;2.00;1.50;;;;;;;;;;4552359;28;20962;-57
2023/03/21 02:22:53;;;;;;;2.20;1.55;;;;;;;;;;4551290;28;20043;-57
2023/03/21 02:25:25;;;;;;;1.50;1.40;;;;;;;;;;4567540;28;20036;-58
2023/03/21 02:27:41;;;;;;;1.63;1.52;;;;;;;;;;4549461;28;20135;-57
2023/03/21 02:30:21;;;;;;;2.03;1.70;;;;;;;;;;4551596;28;20036;-57
2023/03/21 02:32:53;;;;;;;1.83;1.58;;;;;;;;;;4550197;28;20075;-57
2023/03/21 02:35:10;;;;;;;2.20;1.40;;;;;;;;;;4549462;28;20037;-57
2023/03/21 02:37:33;;;;;;;1.70;1.60;;;;;;;;;;4552328;28;20029;-57
2023/03/21 02:40:11;;;;;;;1.83;1.60;;;;;;;;;;4549673;28;20084;-57
2023/03/21 02:42:42;;;;;;;2.40;1.52;;;;;;;;;;4543754;28;20558;-57
2023/03/21 02:44:59;;;;;;;2.80;1.70;;;;;;;;;;4534533;28;20339;-57
2023/03/21 02:47:16;;;;;;;2.03;1.52;;;;;;;;;;4551319;28;20634;-57
2023/03/21 02:49:41;;;;;;;2.00;1.80;;;;;;;;;;4550216;28;20040;-57
2023/03/21 02:51:52;;;;;;;2.45;1.92;;;;;;;;;;4544280;28;20571;-58
2023/03/21 02:54:07;;;;;;;1.98;1.77;;;;;;;;;;4535607;28;20068;-57
2023/03/21 02:56:21;;;;;;;1.70;1.50;;;;;;;;;;4533398;28;20584;-57
2023/03/21 02:58:37;;;;;;;2.63;1.67;;;;;;;;;;4531762;28;20610;-57
2023/03/21 03:00:49;;;;;;;2.85;1.80;;;;;;;;;;4549762;28;20041;-58
2023/03/21 03:03:12;;;;;;;2.22;1.70;;;;;;;;;;4553148;28;20063;-57
2023/03/21 03:05:25;;;;;;;2.60;1.50;;;;;;;;;;4549497;28;20555;-57
2023/03/21 03:07:48;;;;;;;2.25;1.60;;;;;;;;;;4550251;28;20042;-57
2023/03/21 03:10:24;;;;;;;2.20;1.60;;;;;;;;;;4552465;28;20060;-57
2023/03/21 03:13:17;;;;;;;2.03;1.60;;;;;;;;;;4568673;28;20028;-57
2023/03/21 03:15:37;;;;;;;2.40;1.40;;;;;;;;;;4556711;28;20694;-57
2023/03/21 03:17:59;;;;;;;2.28;1.75;;;;;;;;;;4537978;28;20095;-57
2023/03/21 03:20:16;;;;;;;2.00;1.63;;;;;;;;;;4555573;28;20117;-57
2023/03/21 03:22:46;;;;;;;2.38;1.95;;;;;;;;;;4569628;27;20521;-57
2023/03/21 03:25:01;;;;;;;1.90;1.65;;;;;;;;;;4529301;28;20038;-57
2023/03/21 03:27:16;;;;;;;2.42;1.70;;;;;;;;;;4571667;28;20101;-57
2023/03/21 03:29:29;;;;;;;2.42;1.70;;;;;;;;;;4534727;28;20025;-57
2023/03/21 03:31:43;;;;;;;2.50;1.70;;;;;;;;;;4537670;28;20600;-57
2023/03/21 03:33:58;;;;;;;1.90;1.65;;;;;;;;;;4537184;28;20041;-57
2023/03/21 03:36:11;;;;;;;2.00;1.60;;;;;;;;;;4537732;28;20517;-57
2023/03/21 03:38:23;;;;;;;2.20;1.50;;;;;;;;;;4537433;28;20660;-57
2023/03/21 03:40:39;;;;;;;2.25;1.70;;;;;;;;;;4550456;27;20123;-57
2023/03/21 03:43:01;;;;;;;2.53;1.60;;;;;;;;;;4551782;28;20123;-56
2023/03/21 03:45:17;;;;;;;2.40;1.80;;;;;;;;;;4556133;27;20032;-57
2023/03/21 03:47:43;;;;;;;1.90;1.70;;;;;;;;;;4567039;28;20059;-57
2023/03/21 03:50:35;;;;;;;2.63;1.70;;;;;;;;;;4566470;28;20032;-57
2023/03/21 03:52:50;;;;;;;2.42;1.80;;;;;;;;;;4571224;27;20102;-57
2023/03/21 03:55:02;;;;;;;2.20;1.60;;;;;;;;;;4571082;28;20074;-57
2023/03/21 03:57:18;;;;;;;2.33;2.00;;;;;;;;;;4570698;28;20626;-58
2023/03/21 03:59:28;;;;;;;2.95;1.70;;;;;;;;;;4553896;28;20020;-57
2023/03/21 04:01:51;;;;;;;2.05;1.70;;;;;;;;;;4552527;28;20054;-57
2023/03/21 04:04:02;;;;;;;3.00;1.95;;;;;;;;;;4569283;28;27180;-57
2023/03/21 04:06:13;;;;;;;2.65;1.85;;;;;;;;;;4566571;28;20031;-57
2023/03/21 04:08:23;;;;;;;2.30;1.75;;;;;;;;;;4570951;28;20109;-57
2023/03/21 04:10:38;;;;;;;2.83;1.90;;;;;;;;;;4567494;28;20036;-57
2023/03/21 04:12:49;;;;;;;2.33;1.88;;;;;;;;;;4569709;28;20043;-57
2023/03/21 04:15:11;;;;;;;1.65;1.55;;;;;;;;;;4562478;28;20032;-57
2023/03/21 04:17:26;;;;;;;2.65;1.90;;;;;;;;;;4568325;27;20118;-57
2023/03/21 04:19:37;;;;;;;2.17;1.73;;;;;;;;;;4569523;28;20142;-56
2023/03/21 04:21:47;;;;;;;2.10;1.90;;;;;;;;;;4566301;27;20044;-57
2023/03/21 04:24:00;;;;;;;2.28;1.92;;;;;;;;;;4567687;27;20036;-57
2023/03/21 04:26:10;;;;;;;2.00;1.75;;;;;;;;;;4571782;27;20024;-58
2023/03/21 04:28:27;;;;;;;2.95;1.90;;;;;;;;;;4561364;27;20043;-57
2023/03/21 04:31:08;;;;;;;2.28;1.98;;;;;;;;;;4483676;28;20178;-57
2023/03/21 04:33:26;;;;;;;2.90;2.05;;;;;;;;;;4584184;27;20806;-57
2023/03/21 04:35:41;;;;;;;2.38;2.00;;;;;;;;;;4566278;28;20792;-57
2023/03/21 04:37:52;;;;;;;2.30;2.00;;;;;;;;;;4566819;28;20680;-57
2023/03/21 04:40:05;;;;;;;2.30;2.10;;;;;;;;;;4569719;28;20144;-57
2023/03/21 04:42:17;;;;;;;2.65;1.90;;;;;;;;;;4520873;28;20034;-57
2023/03/21 04:44:28;;;;;;;2.53;2.10;;;;;;;;;;4550331;28;20025;-57
2023/03/21 04:46:39;;;;;;;2.45;2.00;;;;;;;;;;4568730;28;20044;-57
2023/03/21 04:48:50;;;;;;;2.22;1.95;;;;;;;;;;4533026;28;20037;-57
2023/03/21 04:51:00;;;;;;;2.65;2.05;;;;;;;;;;4548496;28;30252;-57
2023/03/21 04:53:12;;;;;;;2.17;1.98;;;;;;;;;;4533575;28;20060;-56
2023/03/21 04:55:25;;;;;;;2.35;1.95;;;;;;;;;;4553193;28;20488;-57
2023/03/21 04:57:37;;;;;;;2.45;2.05;;;;;;;;;;4550365;28;20167;-57
2023/03/21 04:59:47;;;;;;;2.35;1.90;;;;;;;;;;4567696;28;20078;-58
2023/03/21 05:01:58;;;;;;;3.20;2.15;;;;;;;;;;4554438;28;20101;-57
2023/03/21 05:04:11;;;;;;;2.90;2.10;;;;;;;;;;4569744;28;21586;-56
2023/03/21 05:06:22;;;;;;;2.17;1.90;;;;;;;;;;4553998;28;20073;-57
2023/03/21 05:08:34;;;;;;;2.45;2.20;;;;;;;;;;4532846;28;20236;-57
2023/03/21 05:10:45;;;;;;;2.35;2.15;;;;;;;;;;4568071;28;20031;-57
2023/03/21 05:12:56;;;;;;;3.33;2.33;;;;;;;;;;4550674;28;20043;-57
2023/03/21 05:15:07;;;;;;;3.03;2.10;;;;;;;;;;4549867;28;20033;-57
2023/03/21 05:17:22;;;;;;;2.45;2.20;;;;;;;;;;4551161;28;20037;-56
2023/03/21 05:19:34;;;;;;;3.58;2.40;;;;;;;;;;4551138;28;20033;-57
2023/03/21 05:21:45;;;;;;;2.85;2.20;;;;;;;;;;4542876;28;20103;-55
2023/03/21 05:24:02;;;;;;;3.25;2.22;;;;;;;;;;4555297;28;20344;-57
2023/03/21 05:26:14;;;;;;;2.63;2.20;;;;;;;;;;4551795;28;20592;-56
2023/03/21 05:28:35;;;;;;;3.08;2.10;;;;;;;;;;4565495;27;20036;-57
2023/03/21 05:30:45;;;;;;;2.50;2.30;;;;;;;;;;4544919;28;20056;-56
2023/03/21 05:32:56;;;;;;;2.78;2.47;;;;;;;;;;4568331;28;20063;-56
2023/03/21 05:35:06;;;;;;;3.13;2.25;;;;;;;;;;4550464;28;20032;-57
2023/03/21 05:37:17;;;;;;;3.13;2.20;;;;;;;;;;4565155;28;20042;-57
2023/03/21 05:39:31;;;;;;;3.58;2.22;;;;;;;;;;4547239;28;20036;-57
2023/03/21 05:41:50;;;;;;;2.63;2.20;;;;;;;;;;4557554;27;20032;-57
2023/03/21 05:44:00;;;;;;;4.28;2.65;;;;;;;;;;4563282;28;20032;-57
2023/03/21 05:46:11;;;;;;;2.88;2.35;;;;;;;;;;4566567;28;20405;-58
2023/03/21 05:48:22;;;;;;;2.72;2.22;;;;;;;;;;4566038;28;20642;-58
2023/03/21 05:50:49;;;;;;;3.80;2.70;;;;;;;;;;4566429;27;20845;-58
2023/03/21 05:53:02;;;;;;;3.15;2.33;;;;;;;;;;4580399;27;20024;-59
2023/03/21 05:55:13;;;;;;;3.25;2.30;;;;;;;;;;4564895;28;20032;-58
2023/03/21 05:57:25;;;;;;;3.60;2.58;;;;;;;;;;4559305;27;20103;-57
2023/03/21 05:59:40;;;;;;;;;;;;;;;;;;4552246;27;20066;-58
2023/03/21 06:01:51;;;;;;;2.75;2.20;;;;;;;;;;4558313;27;20337;-58
2023/03/21 06:04:01;;;;;;;2.85;2.20;;;;;;;;;;4566386;27;20028;-57
2023/03/21 06:06:13;;;;;;;3.22;2.50;;;;;;;;;;4562987;28;20071;-58
2023/03/21 06:08:32;;;;;;;3.40;2.30;;;;;;;;;;4564669;28;20139;-57
2023/03/21 06:10:42;;;;;;;3.35;2.40;;;;;;;;;;4564480;27;20074;-57
2023/03/21 06:12:53;;;;;;;3.00;2.40;;;;;;;;;;4563724;27;20024;-58
2023/03/21 06:15:12;;;;;;;3.42;2.40;;;;;;;;;;4563414;28;20123;-58
2023/03/21 06:17:36;;;;;;;3.80;2.30;;;;;;;;;;4563051;28;20032;-57
2023/03/21 06:19:51;;;;;;;3.13;2.28;;;;;;;;;;4548270;28;20481;-57
2023/03/21 06:22:07;;;;;;;2.80;2.30;;;;;;;;;;4567144;28;20958;-57
2023/03/21 06:24:21;;;;;;;2.92;2.35;;;;;;;;;;4568019;28;20035;-58
2023/03/21 06:26:32;;;;;;;2.75;2.00;;;;;;;;;;4564420;28;20043;-58
2023/03/21 06:28:43;;;;;;;3.03;2.20;;;;;;;;;;4568204;28;20450;-58
2023/03/21 06:30:53;;;;;;;3.08;2.25;;;;;;;;;;4564358;28;20036;-58
2023/03/21 06:33:07;;;;;;;2.85;2.30;;;;;;;;;;4566459;27;20124;-58
2023/03/21 06:35:18;;;;;;;3.10;2.17;;;;;;;;;;4563574;28;20447;-58
2023/03/21 06:37:28;;;;;;;3.42;2.25;;;;;;;;;;4565091;27;20062;-58
2023/03/21 06:39:40;;;;;;;2.20;2.00;;;;;;;;;;4561292;27;20051;-58
2023/03/21 06:41:51;;;;;;;2.60;1.98;;;;;;;;;;4567685;27;21022;-58
2023/03/21 06:44:02;;;;;;;2.65;2.00;;;;;;;;;;4571479;27;20129;-58
2023/03/21 06:46:16;;;;;;;2.67;1.90;;;;;;;;;;4571224;28;20032;-58
2023/03/21 06:48:27;;;;;;;2.58;2.00;;;;;;;;;;4569855;27;20032;-58
2023/03/21 06:50:38;;;;;;;2.20;1.90;;;;;;;;;;4563839;27;20043;-58
2023/03/21 06:52:49;;;;;;;3.35;2.10;;;;;;;;;;4584741;27;20641;-58
2023/03/21 06:55:01;;;;;;;3.75;2.40;;;;;;;;;;4571108;28;20735;-58
2023/03/21 06:57:12;;;;;;;2.83;2.15;;;;;;;;;;4564198;27;20190;-58
2023/03/21 06:59:23;;;;;;;2.83;1.90;;;;;;;;;;4570097;28;20032;-58
2023/03/21 07:01:38;;;;;;;2.50;2.03;;;;;;;;;;4550449;28;20624;-58
2023/03/21 07:03:52;;;;;;;2.33;2.10;;;;;;;;;;4566658;28;20020;-58
2023/03/21 07:06:07;;;;;;;2.60;1.98;;;;;;;;;;4567528;28;20035;-57
2023/03/21 07:08:18;;;;;;;3.13;2.08;;;;;;;;;;4567967;28;20043;-58
2023/03/21 07:10:29;;;;;;;3.10;2.03;;;;;;;;;;4570340;27;20821;-58
2023/03/21 07:12:47;;;;;;;2.70;2.30;;;;;;;;;;4564872;27;20082;-57
2023/03/21 07:15:07;;;;;;;3.05;2.10;;;;;;;;;;4566783;28;20025;-57
2023/03/21 07:17:18;;;;;;;2.30;2.00;;;;;;;;;;4567927;28;20130;-58
2023/03/21 07:19:28;;;;;;;2.78;2.10;;;;;;;;;;4568048;28;20039;-57
2023/03/21 07:21:39;;;;;;;2.53;1.90;;;;;;;;;;4553729;28;20088;-58
2023/03/21 07:23:50;;;;;;;2.63;1.83;;;;;;;;;;4567523;28;20082;-58
2023/03/21 07:26:00;;;;;;;2.60;1.92;;;;;;;;;;4587822;27;20082;-58
2023/03/21 07:28:11;;;;;;;1.90;1.70;;;;;;;;;;4568472;27;20575;-58
2023/03/21 07:30:21;;;;;;;2.28;1.80;;;;;;;;;;4587046;27;20085;-58
2023/03/21 07:32:33;;;;;;;2.20;1.70;;;;;;;;;;4569877;28;20032;-58
2023/03/21 07:34:43;;;;;;;2.97;1.80;;;;;;;;;;4568297;28;20058;-57
2023/03/21 07:36:54;;;;;;;2.45;1.90;;;;;;;;;;4550639;28;20531;-58
2023/03/21 07:39:05;;;;;;;2.47;1.80;;;;;;;;;;4567530;27;20040;-58
2023/03/21 07:41:15;;;;;;;2.47;1.92;;;;;;;;;;4568116;27;20063;-58
2023/03/21 07:43:26;;;;;;;2.08;1.52;;;;;;;;;;4549704;28;20082;-58
2023/03/21 07:45:36;;;;;;;2.63;1.70;;;;;;;;;;4550154;28;20039;-57
2023/03/21 07:47:51;;;;;;;2.47;1.80;;;;;;;;;;4556089;28;20041;-56
2023/03/21 07:50:03;;;;;;;2.25;1.90;;;;;;;;;;4552501;28;20044;-57
2023/03/21 07:52:13;;;;;;;2.60;1.65;;;;;;;;;;4568932;27;20033;-58
2023/03/21 07:54:24;;;;;;;2.28;1.77;;;;;;;;;;4567612;28;20024;-58
2023/03/21 07:56:35;;;;;;;2.67;1.88;;;;;;;;;;4550678;28;20044;-57
2023/03/21 07:58:45;;;;;;;2.40;1.67;;;;;;;;;;4568088;28;20043;-58
2023/03/21 08:00:57;;;;;;;3.22;1.80;;;;;;;;;;4549988;28;20052;-58
2023/03/21 08:03:08;;;;;;;2.38;1.70;;;;;;;;;;4567997;28;20036;-57
2023/03/21 08:05:32;;;;;;;2.50;1.70;;;;;;;;;;4566752;28;20643;-57
2023/03/21 08:07:42;;;;;;;2.10;1.52;;;;;;;;;;4568629;28;20032;-58
2023/03/21 08:09:53;;;;;;;2.47;1.45;;;;;;;;;;4566505;28;25836;-58
2023/03/21 08:12:04;;;;;;;1.83;1.60;;;;;;;;;;4569304;28;20039;-57
2023/03/21 08:14:15;;;;;;;1.85;1.55;;;;;;;;;;4536181;28;20116;-58
2023/03/21 08:16:25;;;;;;;2.40;1.73;;;;;;;;;;4568607;28;20040;-56
2023/03/21 08:18:36;;;;;;;2.55;1.58;;;;;;;;;;4552179;28;20037;-58
2023/03/21 08:20:51;;;;;;;2.63;1.60;;;;;;;;;;4566903;28;20052;-57
2023/03/21 08:23:01;;;;;;;1.98;1.60;;;;;;;;;;4566793;28;20024;-57
2023/03/21 08:25:13;;;;;;;2.08;1.65;;;;;;;;;;4567779;28;20028;-57
2023/03/21 08:27:23;;;;;;;1.80;1.50;;;;;;;;;;4566908;28;20041;-57
2023/03/21 08:29:39;;;;;;;2.92;1.90;;;;;;;;;;4566794;28;20040;-57
2023/03/21 08:31:49;;;;;;;2.13;1.55;;;;;;;;;;4567586;28;20265;-58
2023/03/21 08:34:00;;;;;;;2.63;1.75;;;;;;;;;;4554009;28;20082;-57
2023/03/21 08:36:11;;;;;;;2.78;1.83;;;;;;;;;;4568648;28;20032;-58
2023/03/21 08:38:21;;;;;;;2.38;1.75;;;;;;;;;;4569454;28;20116;-58
2023/03/21 08:40:32;;;;;;;2.35;1.52;;;;;;;;;;4567460;28;20359;-59
2023/03/21 08:42:43;;;;;;;2.10;1.75;;;;;;;;;;4551320;28;20571;-57
2023/03/21 08:44:53;;;;;;;2.33;1.75;;;;;;;;;;4550845;28;20075;-57
2023/03/21 08:47:05;;;;;;;1.83;1.40;;;;;;;;;;4568549;28;20449;-59
2023/03/21 08:49:15;;;;;;;1.80;1.33;;;;;;;;;;4549842;28;20033;-57
2023/03/21 08:51:26;;;;;;;1.92;1.40;;;;;;;;;;4567477;28;20032;-57
2023/03/21 08:53:36;;;;;;;1.80;1.50;;;;;;;;;;4566841;27;20078;-57
2023/03/21 08:55:48;;;;;;;1.83;1.50;;;;;;;;;;4566208;28;20409;-57
2023/03/21 08:57:58;;;;;;;6.72;1.88;;;;;;;;;;4568584;28;20105;-58
2023/03/21 09:00:13;;;;;;;2.33;1.70;;;;;;;;;;4567468;28;20097;-57
2023/03/21 09:02:23;;;;;;;2.45;1.50;;;;;;;;;;4550245;28;20603;-56
2023/03/21 09:04:34;;;;;;;1.85;1.50;;;;;;;;;;4567325;28;20035;-56
2023/03/21 09:06:47;;;;;;;2.53;1.63;;;;;;;;;;4565938;28;20975;-57
2023/03/21 09:08:58;;;;;;;2.30;1.65;;;;;;;;;;4549192;28;20080;-57
2023/03/21 09:11:09;;;;;;;2.13;1.40;;;;;;;;;;4567914;28;21084;-56
2023/03/21 09:13:20;;;;;;;2.33;1.50;;;;;;;;;;4567064;28;20212;-57
2023/03/21 09:15:32;;;;;;;2.20;1.40;;;;;;;;;;4565164;28;20086;-57
2023/03/21 09:17:43;;;;;;;2.38;1.50;;;;;;;;;;4568775;28;20093;-60
2023/03/21 09:19:55;;;;;;;2.55;1.77;;;;;;;;;;4549409;28;20048;-60
2023/03/21 09:22:13;;;;;;;1.80;1.38;;;;;;;;;;4566790;28;20040;-57
2023/03/21 09:24:23;;;;;;;2.20;1.40;;;;;;;;;;4566895;28;21173;-62
2023/03/21 09:26:34;;;;;;;1.38;1.10;;;;;;;;;;4567321;28;20032;-57
2023/03/21 09:28:46;;;;;;;2.53;1.50;;;;;;;;;;4567119;28;20054;-58
2023/03/21 09:31:01;;;;;;;1.85;1.45;;;;;;;;;;4566016;28;20048;-58
2023/03/21 09:33:18;;;;;;;1.83;1.35;;;;;;;;;;4549170;28;20040;-56
2023/03/21 09:35:28;;;;;;;1.70;1.30;;;;;;;;;;4567166;28;20025;-58
2023/03/21 09:37:41;;;;;;;1.30;1.20;;;;;;;;;;4550561;28;20590;-57
2023/03/21 09:39:51;;;;;;;1.60;1.20;;;;;;;;;;4568672;28;20145;-59
2023/03/21 09:42:10;;;;;;;1.40;1.20;;;;;;;;;;4568820;28;20159;-58
2023/03/21 09:44:33;;;;;;;1.95;1.40;;;;;;;;;;4570012;28;20028;-59
2023/03/21 09:46:50;;;;;;;1.55;1.20;;;;;;;;;;4552942;28;20035;-61
2023/03/21 09:49:08;;;;;;;1.23;1.10;;;;;;;;;;4553889;28;20151;-59
2023/03/21 09:51:21;;;;;;;1.48;1.10;;;;;;;;;;4552240;28;20057;-62
2023/03/21 09:53:37;;;;;;;2.00;1.15;;;;;;;;;;4567983;28;20038;-61
2023/03/21 09:55:48;;;;;;;1.30;1.20;;;;;;;;;;4568451;28;20044;-58
2023/03/21 09:58:38;;;;;;;1.83;1.30;;;;;;;;;;4567837;28;20091;-59
2023/03/21 10:00:55;;;;;;;1.88;1.15;;;;;;;;;;4550154;28;20145;-56
2023/03/21 10:03:23;;;;;;;1.33;1.23;;;;;;;;;;4551772;28;20639;-57
2023/03/21 10:05:37;;;;;;;1.48;1.10;;;;;;;;;;4567367;28;20036;-58
2023/03/21 10:08:03;;;;;;;1.63;1.25;;;;;;;;;;4549786;28;20950;-58
2023/03/21 10:10:16;;;;;;;2.13;1.23;;;;;;;;;;4550570;28;20024;-59
2023/03/21 10:12:29;;;;;;;2.00;1.15;;;;;;;;;;4534915;28;20025;-57
2023/03/21 10:18:30;;;;;;;2.35;1.30;;;;;;;25.19;31.87;100425.59;4629920;27;20936;-57
2023/03/21 10:50:19;;;;;;;1.30;1.20;;;;;;;22.28;38.54;100490.66;4612645;27;20334;-56
2023/03/21 10:52:31;;;;;;;1.92;1.23;;;;;;;22.23;38.79;100481.09;4602074;27;20042;-56
2023/03/21 10:54:42;;;;;;;1.65;1.27;;;;;;;22.28;39.38;100482.03;4585314;27;20044;-57
2023/03/21 10:57:18;;;;;;;1.40;1.15;;;;;;;22.27;39.19;100486.94;4584421;27;20040;-56
2023/03/21 10:59:38;;;;;;;1.45;1.00;;;;;;;22.25;39.44;100483.59;4584753;27;20038;-56
2023/03/21 11:01:51;;;;;;;1.38;1.10;;;;;;;22.29;39.04;100495.19;4586281;27;20047;-57
2023/03/21 11:04:15;;;;;;;1.42;1.02;;;;;;;22.31;39.09;100481.25;4585665;27;20067;-57
2023/03/21 11:06:29;;;;;;;1.38;1.20;;;;;;;22.28;39.19;100479.16;4584826;27;20040;-57
2023/03/21 11:08:56;;;;;;;1.33;1.10;;;;;;;22.25;39.35;100479.91;4586007;27;20032;-57
2023/03/21 11:11:11;;;;;;;1.50;1.00;;;;;;;22.28;39.70;100479.16;4585562;27;20600;-57
2023/03/21 11:13:31;;;;;;;1.67;1.20;;;;;;;22.27;39.48;100477.47;4585686;27;20583;-57
2023/03/21 11:15:54;;;;;;;1.45;1.00;;;;;;;22.27;39.47;100477.47;4584610;27;20039;-57
2023/03/21 11:18:26;;;;;;;1.20;1.10;;;;;;;22.27;39.56;100474.59;4600332;27;20059;-58
2023/03/21 11:20:47;;;;;;;1.52;1.10;;;;;;;22.26;39.45;100464.31;4583206;27;20032;-57
2023/03/21 11:22:57;;;;;;;1.85;1.40;;;;;;;22.18;39.99;100452.66;4585239;27;20043;-57
2023/03/21 11:25:18;;;;;;;1.02;0.90;;;;;;;22.27;39.70;100472.56;4585353;27;20035;-59
2023/03/21 11:27:30;;;;;;;1.63;0.93;;;;;;;22.27;39.71;100468.84;4586315;27;20583;-58
2023/03/21 11:29:50;;;;;;;1.83;1.00;;;;;;;22.26;39.43;100470.91;4582430;27;20051;-57
2023/03/21 11:32:23;;;;;;;1.17;0.90;;;;;;;22.27;39.56;100471.72;4584470;27;20035;-58
2023/03/21 11:34:44;;;;;;;0.93;0.90;;;;;;;22.25;39.59;100468.41;4585402;27;20078;-58
2023/03/21 11:37:00;;;;;;;1.77;0.93;;;;;;;22.25;39.77;100463.47;4583840;27;20039;-58
2023/03/21 11:39:10;;;;;;;1.38;1.10;;;;;;;22.28;39.70;100468.44;4584891;27;20550;-58
2023/03/21 11:41:32;;;;;;;1.30;0.82;;;;;;;22.26;40.10;100459.41;4584745;27;20032;-59
2023/03/21 11:43:51;;;;;;;1.00;0.90;;;;;;;22.26;39.51;100452.81;4601168;27;20390;-58
2023/03/21 11:46:08;;;;;;;1.02;0.80;;;;;;;22.26;39.82;100449.94;4585497;27;20633;-56
2023/03/21 11:48:18;;;;;;;1.20;0.80;;;;;;;22.22;40.01;100438.38;4585157;27;20035;-56
2023/03/21 11:50:32;;;;;;;1.10;0.65;;;;;;;22.27;39.71;100437.22;4600405;27;20377;-56
2023/03/21 11:52:49;;;;;;;0.95;0.73;;;;;;;22.24;39.66;100441.69;4582705;27;20073;-57
2023/03/21 11:55:06;;;;;;;1.08;0.80;;;;;;;22.27;40.07;100438.06;4585268;27;20032;-57
2023/03/21 11:57:29;;;;;;;;;;;;;;;22.29;40.09;100443.41;4599102;27;20554;-57
2023/03/21 11:59:55;;;;;;;0.85;0.80;;;;;;;22.28;40.21;100439.69;4585878;27;19922;-57
2023/03/21 12:02:36;;;;;;;1.38;0.93;;;;;;;22.30;40.03;100427.81;4574598;27;20032;-57
2023/03/21 12:05:06;;;;;;;0.88;0.73;;;;;;;22.31;40.23;100423.75;4572767;27;20147;-57
2023/03/21 12:07:55;;;;;;;1.08;0.70;;;;;;;22.31;39.76;100415.13;4572283;27;20174;-57
2023/03/21 12:10:14;;;;;;;1.10;0.80;;;;;;;22.25;40.10;100408.03;4560297;27;20175;-57
2023/03/21 12:12:46;;;;;;;1.17;0.80;;;;;;;22.32;40.32;100408.16;4574844;27;20085;-57
2023/03/21 12:15:05;;;;;;;1.23;0.60;;;;;;;22.26;40.43;100403.94;4572497;27;21087;-57
2023/03/21 12:17:29;;;;;;;0.70;0.70;;;;;;;22.31;40.53;100404.44;4571352;27;20916;-57
2023/03/21 12:20:26;;;;;;;0.95;0.80;;;;;;;22.31;40.40;100403.63;4572426;27;20036;-57
2023/03/21 12:22:46;;;;;;;0.98;0.80;;;;;;;22.32;40.75;100399.53;4563132;27;20079;-58
2023/03/21 12:25:05;;;;;;;0.68;0.63;;;;;;;22.32;40.76;100394.59;4572516;27;20028;-56
2023/03/21 12:27:18;;;;;;;0.77;0.77;;;;;;;22.33;41.02;100390.50;4576115;27;20578;-56
2023/03/21 12:29:47;;;;;;;0.52;0.50;;;;;;;22.34;40.79;100391.34;4555215;27;20151;-58
2023/03/21 12:32:03;;;;;;;0.68;0.60;;;;;;;22.34;41.10;100388.47;4572016;27;20036;-57
2023/03/21 12:34:33;;;;;;;0.90;0.70;;;;;;;22.34;40.78;100385.59;4571161;27;21257;-58
2023/03/21 12:37:06;;;;;;;0.70;0.70;;;;;;;22.32;40.94;100382.25;4571717;27;21058;-57
2023/03/21 12:39:32;;;;;;;0.63;0.63;;;;;;;22.32;40.83;100370.75;4571604;27;20113;-56
2023/03/21 12:41:55;;;;;;;0.95;0.70;;;;;;;22.31;40.54;100369.91;4572293;27;20046;-57
2023/03/21 12:44:19;;;;;;;0.73;0.60;;;;;;;22.32;40.72;100371.59;4587868;27;20036;-58
2023/03/21 12:46:47;;;;;;;1.33;0.70;;;;;;;22.34;40.58;100368.34;4573100;27;20032;-59
2023/03/21 12:49:09;;;;;;;0.65;0.60;;;;;;;22.34;41.04;100368.34;4571323;27;20135;-57
2023/03/21 12:51:28;;;;;;;0.55;0.50;;;;;;;22.33;40.95;100366.66;4558148;27;20094;-59
2023/03/21 12:53:50;;;;;;;0.75;0.60;;;;;;;22.32;41.47;100362.13;4571791;27;20497;-56
2023/03/21 12:56:06;;;;;;;0.93;0.70;;;;;;;22.33;41.26;100361.75;4571450;27;20669;-55
2023/03/21 12:58:21;;;;;;;0.60;0.60;;;;;;;22.28;41.43;100352.63;4572512;27;20036;-58
2023/03/21 13:00:44;;;;;;;0.90;0.60;;;;;;;22.33;41.34;100355.16;4571603;27;20165;-57
2023/03/21 13:03:07;;;;;;;1.10;0.57;;;;;;;22.31;41.42;100354.75;4574124;27;20105;-57
2023/03/21 13:05:20;;;;;;;0.70;0.60;;;;;;;22.33;41.17;100355.16;4558559;27;20106;-57
2023/03/21 13:07:36;;;;;;;1.10;0.70;;;;;;;22.32;41.23;100351.47;4575093;27;20036;-57
2023/03/21 13:09:46;;;;;;;1.13;0.70;;;;;;;22.31;41.23;100346.91;4572586;27;20043;-57
2023/03/21 13:12:20;;;;;;;1.10;0.73;;;;;;;22.30;41.23;100347.31;4571570;27;20737;-58
2023/03/21 13:14:39;;;;;;;1.13;1.02;;;;;;;22.32;41.22;100348.59;4574374;27;21013;-57
2023/03/21 13:17:10;;;;;;;1.20;1.10;;;;;;;22.33;40.82;100349.41;4575121;27;20594;-57
2023/03/21 13:19:27;;;;;;;0.90;0.70;;;;;;;22.31;41.14;100334.59;4587088;27;20069;-57
2023/03/21 13:22:04;;;;;;;1.55;1.42;;;;;;;22.32;40.69;100342.00;4570259;27;20043;-57
2023/03/21 13:24:31;;;;;;;1.58;1.40;;;;;;;22.33;41.06;100346.53;4586613;27;20116;-58
2023/03/21 13:26:48;;;;;;;0.70;0.70;;;;;;;22.32;41.05;100337.09;4577768;27;21033;-58